createdAt,value
2018-07-10T00:00:03.189Z,0.00
2018-07-10T00:01:03.153Z,0.00
2018-07-10T00:02:03.168Z,0.00
2018-07-10T00:03:03.196Z,0.00
2018-07-10T00:04:03.224Z,0.00
2018-07-10T00:05:03.231Z,0.00
2018-07-10T00:06:03.240Z,0.00
2018-07-10T00:07:03.551Z,0.00
2018-07-10T00:08:03.300Z,0.00
2018-07-10T00:09:03.466Z,0.00
2018-07-10T00:10:03.308Z,0.00
2018-07-10T00:11:03.324Z,0.00
2018-07-10T00:12:03.314Z,0.00
2018-07-10T00:13:03.317Z,0.00
2018-07-10T00:14:03.340Z,0.00
2018-07-10T00:15:03.334Z,0.00
2018-07-10T00:16:03.386Z,0.00
2018-07-10T00:17:03.410Z,0.00
2018-07-10T00:18:03.376Z,0.00
2018-07-10T00:19:03.390Z,0.00
2018-07-10T00:20:03.390Z,0.00
2018-07-10T00:21:03.436Z,0.00
2018-07-10T00:22:03.505Z,0.00
2018-07-10T00:23:03.452Z,0.00
2018-07-10T00:24:03.456Z,0.00
2018-07-10T00:25:03.461Z,0.00
2018-07-10T00:26:03.479Z,0.00
2018-07-10T00:27:03.485Z,0.00
2018-07-10T00:28:03.552Z,0.00
2018-07-10T00:29:03.536Z,0.00
2018-07-10T00:30:03.525Z,0.00
2018-07-10T00:31:03.549Z,0.00
2018-07-10T00:32:03.685Z,0.00
2018-07-10T00:33:03.603Z,0.00
2018-07-10T00:34:03.778Z,0.00
2018-07-10T00:35:03.590Z,0.00
2018-07-10T00:36:03.609Z,0.00
2018-07-10T00:37:03.621Z,0.00
2018-07-10T00:38:03.656Z,0.00
2018-07-10T00:39:03.666Z,0.00
2018-07-10T00:40:03.670Z,0.00
2018-07-10T00:41:03.703Z,0.00
2018-07-10T00:42:03.686Z,0.00
2018-07-10T00:43:03.726Z,0.00
2018-07-10T00:44:03.747Z,0.00
2018-07-10T00:45:03.725Z,0.00
2018-07-10T00:46:03.737Z,0.00
2018-07-10T00:47:03.775Z,0.00
2018-07-10T00:48:03.759Z,0.00
2018-07-10T00:49:03.779Z,0.00
2018-07-10T00:50:03.794Z,0.00
2018-07-10T00:51:03.798Z,0.00
2018-07-10T00:52:03.826Z,0.00
2018-07-10T00:53:03.857Z,0.00
2018-07-10T00:54:03.856Z,0.00
2018-07-10T00:55:03.852Z,0.00
2018-07-10T00:56:03.850Z,0.00
2018-07-10T00:57:03.874Z,0.00
2018-07-10T00:58:03.944Z,0.00
2018-07-10T00:59:03.945Z,0.00
2018-07-10T01:00:03.898Z,0.00
2018-07-10T01:01:04.022Z,0.00
2018-07-10T01:02:03.925Z,0.00
2018-07-10T01:03:03.984Z,0.00
2018-07-10T01:04:03.959Z,0.00
2018-07-10T01:05:03.991Z,0.00
2018-07-10T01:06:04.025Z,0.00
2018-07-10T01:07:03.998Z,0.00
2018-07-10T01:08:04.008Z,0.00
2018-07-10T01:09:04.034Z,0.00
2018-07-10T01:10:04.061Z,0.00
2018-07-10T01:11:04.040Z,0.00
2018-07-10T01:12:04.117Z,0.00
2018-07-10T01:13:04.062Z,0.00
2018-07-10T01:14:04.075Z,0.00
2018-07-10T01:15:04.093Z,0.00
2018-07-10T01:16:04.125Z,0.00
2018-07-10T01:17:04.137Z,0.00
2018-07-10T01:18:04.130Z,0.00
2018-07-10T01:19:04.145Z,0.00
2018-07-10T01:20:04.183Z,0.00
2018-07-10T01:21:04.153Z,0.00
2018-07-10T01:22:04.210Z,0.00
2018-07-10T01:23:04.208Z,0.00
2018-07-10T01:24:04.200Z,0.00
2018-07-10T01:25:04.225Z,0.00
2018-07-10T01:26:04.250Z,0.00
2018-07-10T01:27:04.283Z,0.00
2018-07-10T01:28:04.248Z,0.00
2018-07-10T01:29:04.266Z,0.00
2018-07-10T01:30:04.356Z,0.00
2018-07-10T01:31:04.308Z,0.00
2018-07-10T01:32:04.340Z,0.00
2018-07-10T01:33:04.340Z,0.00
2018-07-10T01:34:04.331Z,0.00
2018-07-10T01:35:04.333Z,0.00
2018-07-10T01:36:04.363Z,0.00
2018-07-10T01:37:04.362Z,0.00
2018-07-10T01:38:04.422Z,0.00
2018-07-10T01:39:04.424Z,0.00
2018-07-10T01:40:04.390Z,0.00
2018-07-10T01:41:04.418Z,0.00
2018-07-10T01:42:04.443Z,0.00
2018-07-10T01:43:04.450Z,0.00
2018-07-10T01:44:04.483Z,0.00
2018-07-10T01:45:04.491Z,0.00
2018-07-10T01:46:04.464Z,0.00
2018-07-10T01:47:04.488Z,0.00
2018-07-10T01:48:04.491Z,0.00
2018-07-10T01:49:04.517Z,0.00
2018-07-10T01:50:04.551Z,0.00
2018-07-10T01:51:04.548Z,0.00
2018-07-10T01:52:04.622Z,0.00
2018-07-10T01:53:04.621Z,0.00
2018-07-10T01:54:04.580Z,0.00
2018-07-10T01:55:04.583Z,0.00
2018-07-10T01:56:04.601Z,0.00
2018-07-10T01:57:04.599Z,0.00
2018-07-10T01:58:04.654Z,0.00
2018-07-10T01:59:04.642Z,0.00
2018-07-10T02:00:04.637Z,0.00
2018-07-10T02:01:04.675Z,0.00
2018-07-10T02:02:04.662Z,0.00
2018-07-10T02:03:04.853Z,0.00
2018-07-10T02:04:04.698Z,0.00
2018-07-10T02:05:04.974Z,0.00
2018-07-10T02:06:04.710Z,0.00
2018-07-10T02:07:04.763Z,0.00
2018-07-10T02:08:04.735Z,0.00
2018-07-10T02:09:04.816Z,0.00
2018-07-10T02:10:04.763Z,0.00
2018-07-10T02:11:04.807Z,0.00
2018-07-10T02:12:04.792Z,0.00
2018-07-10T02:13:04.809Z,0.00
2018-07-10T02:14:04.862Z,0.00
2018-07-10T02:15:04.876Z,0.00
2018-07-10T02:16:04.846Z,0.00
2018-07-10T02:17:04.870Z,0.00
2018-07-10T02:18:04.853Z,0.00
2018-07-10T02:19:04.882Z,0.00
2018-07-10T02:20:04.913Z,0.00
2018-07-10T02:21:04.905Z,0.00
2018-07-10T02:22:04.932Z,0.00
2018-07-10T02:23:04.934Z,0.00
2018-07-10T02:24:05.001Z,0.00
2018-07-10T02:25:04.944Z,0.00
2018-07-10T02:26:04.962Z,0.00
2018-07-10T02:27:04.971Z,0.00
2018-07-10T02:28:04.992Z,0.00
2018-07-10T02:29:05.015Z,4.00
2018-07-10T02:30:05.060Z,4.00
2018-07-10T02:31:05.030Z,4.00
2018-07-10T02:32:05.054Z,4.00
2018-07-10T02:33:05.068Z,0.00
2018-07-10T02:34:05.049Z,0.00
2018-07-10T02:35:05.120Z,4.00
2018-07-10T02:36:05.116Z,4.00
2018-07-10T02:37:05.127Z,4.00
2018-07-10T02:38:05.128Z,4.00
2018-07-10T02:39:05.132Z,4.00
2018-07-10T02:40:05.136Z,4.00
2018-07-10T02:41:05.150Z,4.00
2018-07-10T02:42:05.499Z,4.00
2018-07-10T02:43:05.179Z,8.00
2018-07-10T02:44:05.342Z,4.00
2018-07-10T02:45:05.187Z,8.00
2018-07-10T02:46:05.256Z,8.00
2018-07-10T02:47:05.245Z,8.00
2018-07-10T02:48:05.263Z,8.00
2018-07-10T02:49:05.235Z,12.00
2018-07-10T02:50:05.271Z,12.00
2018-07-10T02:51:05.294Z,12.00
2018-07-10T02:52:05.317Z,12.00
2018-07-10T02:53:05.295Z,16.00
2018-07-10T02:54:05.291Z,16.00
2018-07-10T02:55:05.330Z,16.00
2018-07-10T02:56:05.358Z,16.00
2018-07-10T02:57:05.352Z,16.00
2018-07-10T02:58:05.362Z,16.00
2018-07-10T02:59:05.388Z,16.00
2018-07-10T03:00:05.427Z,16.00
2018-07-10T03:01:05.397Z,16.00
2018-07-10T03:02:05.405Z,16.00
2018-07-10T03:03:05.408Z,16.00
2018-07-10T03:04:05.445Z,16.00
2018-07-10T03:05:05.479Z,16.00
2018-07-10T03:06:05.443Z,16.00
2018-07-10T03:07:05.453Z,16.00
2018-07-10T03:08:05.533Z,16.00
2018-07-10T03:09:05.503Z,16.00
2018-07-10T03:10:05.555Z,16.00
2018-07-10T03:11:05.517Z,20.00
2018-07-10T03:12:05.525Z,20.00
2018-07-10T03:13:05.531Z,20.00
2018-07-10T03:14:05.579Z,20.00
2018-07-10T03:15:05.589Z,24.00
2018-07-10T03:16:05.576Z,20.00
2018-07-10T03:17:05.583Z,20.00
2018-07-10T03:18:05.617Z,24.00
2018-07-10T03:19:05.622Z,24.00
2018-07-10T03:20:05.702Z,24.00
2018-07-10T03:21:05.649Z,24.00
2018-07-10T03:22:05.639Z,24.00
2018-07-10T03:23:05.666Z,24.00
2018-07-10T03:24:05.666Z,24.00
2018-07-10T03:25:06.086Z,24.00
2018-07-10T03:26:05.682Z,28.00
2018-07-10T03:27:05.991Z,24.00
2018-07-10T03:28:05.719Z,28.00
2018-07-10T03:29:05.755Z,28.00
2018-07-10T03:30:05.802Z,28.00
2018-07-10T03:31:05.801Z,32.00
2018-07-10T03:32:05.789Z,32.00
2018-07-10T03:33:05.770Z,28.00
2018-07-10T03:34:05.787Z,32.00
2018-07-10T03:35:05.821Z,36.00
2018-07-10T03:36:05.823Z,40.00
2018-07-10T03:37:05.863Z,40.00
2018-07-10T03:38:05.866Z,40.00
2018-07-10T03:39:05.859Z,48.00
2018-07-10T03:40:05.867Z,48.00
2018-07-10T03:41:05.876Z,48.00
2018-07-10T03:42:05.907Z,52.00
2018-07-10T03:43:05.939Z,52.00
2018-07-10T03:44:05.906Z,56.00
2018-07-10T03:45:05.954Z,60.00
2018-07-10T03:46:05.942Z,56.00
2018-07-10T03:47:05.951Z,52.00
2018-07-10T03:48:05.962Z,52.00
2018-07-10T03:49:05.984Z,52.00
2018-07-10T03:50:05.991Z,48.00
2018-07-10T03:51:05.996Z,48.00
2018-07-10T03:52:05.993Z,56.00
2018-07-10T03:53:06.016Z,56.00
2018-07-10T03:54:06.031Z,64.00
2018-07-10T03:55:06.077Z,68.00
2018-07-10T03:56:06.056Z,80.00
2018-07-10T03:57:06.094Z,88.00
2018-07-10T03:58:06.102Z,92.00
2018-07-10T03:59:06.090Z,100.00
2018-07-10T04:00:06.105Z,108.00
2018-07-10T04:01:06.121Z,116.00
2018-07-10T04:02:06.187Z,124.00
2018-07-10T04:03:06.136Z,136.00
2018-07-10T04:04:06.136Z,144.00
2018-07-10T04:05:06.174Z,156.00
2018-07-10T04:06:06.155Z,168.00
2018-07-10T04:07:06.215Z,180.00
2018-07-10T04:08:06.229Z,176.00
2018-07-10T04:09:06.270Z,172.00
2018-07-10T04:10:06.222Z,176.00
2018-07-10T04:11:06.237Z,172.00
2018-07-10T04:12:06.233Z,172.00
2018-07-10T04:13:06.321Z,168.00
2018-07-10T04:14:06.255Z,172.00
2018-07-10T04:15:06.270Z,172.00
2018-07-10T04:16:06.540Z,172.00
2018-07-10T04:17:06.307Z,164.00
2018-07-10T04:18:06.442Z,156.00
2018-07-10T04:19:06.341Z,148.00
2018-07-10T04:20:06.406Z,144.00
2018-07-10T04:21:06.387Z,144.00
2018-07-10T04:22:06.381Z,140.00
2018-07-10T04:23:06.375Z,132.00
2018-07-10T04:24:06.454Z,128.00
2018-07-10T04:25:06.385Z,120.00
2018-07-10T04:26:06.488Z,116.00
2018-07-10T04:27:06.440Z,116.00
2018-07-10T04:28:06.433Z,116.00
2018-07-10T04:29:06.455Z,116.00
2018-07-10T04:30:06.502Z,116.00
2018-07-10T04:31:06.488Z,116.00
2018-07-10T04:32:06.495Z,120.00
2018-07-10T04:33:06.488Z,120.00
2018-07-10T04:34:06.506Z,124.00
2018-07-10T04:35:06.574Z,128.00
2018-07-10T04:36:06.562Z,132.00
2018-07-10T04:37:06.568Z,140.00
2018-07-10T04:38:06.595Z,144.00
2018-07-10T04:39:06.578Z,148.00
2018-07-10T04:40:06.575Z,156.00
2018-07-10T04:41:06.634Z,164.00
2018-07-10T04:42:06.613Z,164.00
2018-07-10T04:43:06.618Z,168.00
2018-07-10T04:44:06.618Z,172.00
2018-07-10T04:45:06.630Z,180.00
2018-07-10T04:46:06.672Z,188.00
2018-07-10T04:47:06.683Z,192.00
2018-07-10T04:48:06.691Z,208.00
2018-07-10T04:49:06.737Z,224.00
2018-07-10T04:50:06.703Z,236.00
2018-07-10T04:51:06.728Z,248.00
2018-07-10T04:52:06.755Z,260.00
2018-07-10T04:53:06.742Z,268.00
2018-07-10T04:54:06.746Z,276.00
2018-07-10T04:55:06.757Z,276.00
2018-07-10T04:56:06.787Z,272.00
2018-07-10T04:57:06.807Z,272.00
2018-07-10T04:58:06.807Z,284.00
2018-07-10T04:59:06.821Z,288.00
2018-07-10T05:00:06.817Z,292.00
2018-07-10T05:01:06.828Z,292.00
2018-07-10T05:02:06.894Z,268.00
2018-07-10T05:03:06.863Z,300.00
2018-07-10T05:04:06.869Z,300.00
2018-07-10T05:05:06.881Z,304.00
2018-07-10T05:06:06.959Z,216.00
2018-07-10T05:07:06.928Z,328.00
2018-07-10T05:08:06.908Z,344.00
2018-07-10T05:09:06.932Z,368.00
2018-07-10T05:10:06.935Z,368.00
2018-07-10T05:11:06.987Z,436.00
2018-07-10T05:12:07.007Z,476.00
2018-07-10T05:13:06.976Z,456.00
2018-07-10T05:14:06.980Z,468.00
2018-07-10T05:15:06.994Z,488.00
2018-07-10T05:16:06.997Z,492.00
2018-07-10T05:17:07.055Z,500.00
2018-07-10T05:18:07.080Z,540.00
2018-07-10T05:19:07.059Z,564.00
2018-07-10T05:20:07.070Z,572.00
2018-07-10T05:21:07.077Z,596.00
2018-07-10T05:22:07.085Z,620.00
2018-07-10T05:23:07.161Z,632.00
2018-07-10T05:24:07.139Z,632.00
2018-07-10T05:25:07.113Z,656.00
2018-07-10T05:26:07.132Z,688.00
2018-07-10T05:27:07.152Z,700.00
2018-07-10T05:28:07.180Z,696.00
2018-07-10T05:29:07.207Z,688.00
2018-07-10T05:30:07.184Z,692.00
2018-07-10T05:31:07.308Z,704.00
2018-07-10T05:32:07.233Z,712.00
2018-07-10T05:33:07.301Z,716.00
2018-07-10T05:34:07.230Z,716.00
2018-07-10T05:35:07.329Z,712.00
2018-07-10T05:36:07.267Z,724.00
2018-07-10T05:37:07.379Z,732.00
2018-07-10T05:38:07.337Z,768.00
2018-07-10T05:39:07.346Z,800.00
2018-07-10T05:40:07.309Z,832.00
2018-07-10T05:41:07.370Z,856.00
2018-07-10T05:42:07.316Z,880.00
2018-07-10T05:43:07.371Z,892.00
2018-07-10T05:44:07.369Z,904.00
2018-07-10T05:45:07.369Z,928.00
2018-07-10T05:46:07.400Z,964.00
2018-07-10T05:47:07.449Z,984.00
2018-07-10T05:48:07.388Z,976.00
2018-07-10T05:49:07.426Z,948.00
2018-07-10T05:50:07.407Z,928.00
2018-07-10T05:51:08.008Z,916.00
2018-07-10T05:52:07.575Z,908.00
2018-07-10T05:53:07.479Z,904.00
2018-07-10T05:54:07.469Z,868.00
2018-07-10T05:55:07.512Z,832.00
2018-07-10T05:56:07.533Z,812.00
2018-07-10T05:57:07.535Z,796.00
2018-07-10T05:58:07.585Z,776.00
2018-07-10T05:59:07.573Z,756.00
2018-07-10T06:00:07.543Z,740.00
2018-07-10T06:01:07.551Z,720.00
2018-07-10T06:02:07.583Z,708.00
2018-07-10T06:03:07.632Z,688.00
2018-07-10T06:04:07.623Z,668.00
2018-07-10T06:05:07.640Z,648.00
2018-07-10T06:06:07.637Z,620.00
2018-07-10T06:07:07.678Z,612.00
2018-07-10T06:08:07.683Z,620.00
2018-07-10T06:09:07.671Z,636.00
2018-07-10T06:10:07.734Z,644.00
2018-07-10T06:11:07.715Z,656.00
2018-07-10T06:12:07.719Z,656.00
2018-07-10T06:13:07.699Z,664.00
2018-07-10T06:14:07.773Z,668.00
2018-07-10T06:15:07.738Z,680.00
2018-07-10T06:16:07.815Z,676.00
2018-07-10T06:17:07.757Z,680.00
2018-07-10T06:18:07.974Z,676.00
2018-07-10T06:19:07.771Z,704.00
2018-07-10T06:20:07.800Z,736.00
2018-07-10T06:21:07.830Z,756.00
2018-07-10T06:22:07.823Z,776.00
2018-07-10T06:23:07.916Z,780.00
2018-07-10T06:24:08.888Z,780.00
2018-07-10T06:25:07.884Z,796.00
2018-07-10T06:26:07.876Z,816.00
2018-07-10T06:27:07.931Z,824.00
2018-07-10T06:28:07.976Z,844.00
2018-07-10T06:29:07.913Z,876.00
2018-07-10T06:30:07.913Z,916.00
2018-07-10T06:31:07.941Z,956.00
2018-07-10T06:32:08.027Z,1096.00
2018-07-10T06:33:07.965Z,1140.00
2018-07-10T06:34:07.943Z,1144.00
2018-07-10T06:35:08.002Z,1160.00
2018-07-10T06:36:08.023Z,1152.00
2018-07-10T06:37:08.009Z,1144.00
2018-07-10T06:38:08.044Z,1136.00
2018-07-10T06:39:08.021Z,1036.00
2018-07-10T06:40:08.074Z,1024.00
2018-07-10T06:41:08.067Z,988.00
2018-07-10T06:42:08.129Z,1104.00
2018-07-10T06:43:08.090Z,1128.00
2018-07-10T06:44:08.140Z,1168.00
2018-07-10T06:45:08.164Z,1244.00
2018-07-10T06:46:08.126Z,1264.00
2018-07-10T06:47:08.155Z,1280.00
2018-07-10T06:48:08.165Z,1324.00
2018-07-10T06:49:08.204Z,1412.00
2018-07-10T06:50:08.153Z,1508.00
2018-07-10T06:51:08.187Z,1412.00
2018-07-10T06:52:08.168Z,1488.00
2018-07-10T06:53:08.535Z,1564.00
2018-07-10T06:54:08.255Z,1664.00
2018-07-10T06:55:08.290Z,1784.00
2018-07-10T06:56:08.250Z,1844.00
2018-07-10T06:57:08.252Z,1936.00
2018-07-10T06:58:08.250Z,2064.00
2018-07-10T06:59:08.263Z,2100.00
2018-07-10T07:00:08.330Z,2008.00
2018-07-10T07:01:08.313Z,1940.00
2018-07-10T07:02:08.301Z,1804.00
2018-07-10T07:03:08.316Z,1624.00
2018-07-10T07:04:08.325Z,1516.00
2018-07-10T07:05:08.362Z,1396.00
2018-07-10T07:06:08.363Z,1296.00
2018-07-10T07:07:08.368Z,1288.00
2018-07-10T07:08:08.480Z,1440.00
2018-07-10T07:09:08.375Z,1492.00
2018-07-10T07:10:08.611Z,1536.00
2018-07-10T07:11:08.420Z,1448.00
2018-07-10T07:12:08.478Z,1472.00
2018-07-10T07:13:08.453Z,1500.00
2018-07-10T07:14:08.449Z,1504.00
2018-07-10T07:15:08.480Z,1468.00
2018-07-10T07:16:08.477Z,1408.00
2018-07-10T07:17:08.548Z,1356.00
2018-07-10T07:18:08.487Z,1356.00
2018-07-10T07:19:08.506Z,1408.00
2018-07-10T07:20:08.517Z,1460.00
2018-07-10T07:21:08.521Z,1512.00
2018-07-10T07:22:08.635Z,1580.00
2018-07-10T07:23:08.637Z,1648.00
2018-07-10T07:24:08.589Z,1732.00
2018-07-10T07:25:08.577Z,1828.00
2018-07-10T07:26:08.656Z,1932.00
2018-07-10T07:27:08.615Z,1968.00
2018-07-10T07:28:08.683Z,1948.00
2018-07-10T07:29:08.654Z,1968.00
2018-07-10T07:30:08.665Z,2048.00
2018-07-10T07:31:08.660Z,2092.00
2018-07-10T07:32:08.699Z,2044.00
2018-07-10T07:33:08.698Z,1972.00
2018-07-10T07:34:08.763Z,1932.00
2018-07-10T07:35:08.792Z,1852.00
2018-07-10T07:36:08.730Z,1940.00
2018-07-10T07:37:08.735Z,1876.00
2018-07-10T07:38:08.755Z,1824.00
2018-07-10T07:39:08.817Z,1764.00
2018-07-10T07:40:08.766Z,1732.00
2018-07-10T07:41:08.797Z,1724.00
2018-07-10T07:42:08.796Z,1672.00
2018-07-10T07:43:08.807Z,1712.00
2018-07-10T07:44:09.012Z,1764.00
2018-07-10T07:45:08.871Z,1744.00
2018-07-10T07:46:08.845Z,1732.00
2018-07-10T07:47:08.844Z,1736.00
2018-07-10T07:48:08.868Z,1720.00
2018-07-10T07:49:08.899Z,1772.00
2018-07-10T07:50:08.913Z,1804.00
2018-07-10T07:51:08.979Z,1852.00
2018-07-10T07:52:08.949Z,1856.00
2018-07-10T07:53:08.939Z,1964.00
2018-07-10T07:54:08.941Z,2120.00
2018-07-10T07:55:09.003Z,2472.00
2018-07-10T07:56:09.006Z,2544.00
2018-07-10T07:57:08.969Z,2420.00
2018-07-10T07:58:09.030Z,2336.00
2018-07-10T07:59:09.082Z,2392.00
2018-07-10T08:00:09.019Z,2392.00
2018-07-10T08:01:09.074Z,2432.00
2018-07-10T08:02:09.202Z,2384.00
2018-07-10T08:03:09.110Z,2536.00
2018-07-10T08:04:09.053Z,2480.00
2018-07-10T08:05:09.112Z,2504.00
2018-07-10T08:06:09.081Z,2560.00
2018-07-10T08:07:09.119Z,2652.00
2018-07-10T08:08:09.147Z,2680.00
2018-07-10T08:09:09.173Z,2552.00
2018-07-10T08:10:09.164Z,2424.00
2018-07-10T08:11:09.153Z,2292.00
2018-07-10T08:12:09.170Z,2296.00
2018-07-10T08:13:09.249Z,2200.00
2018-07-10T08:14:09.220Z,2036.00
2018-07-10T08:15:09.284Z,2088.00
2018-07-10T08:16:09.234Z,1888.00
2018-07-10T08:17:09.256Z,1976.00
2018-07-10T08:18:09.249Z,2016.00
2018-07-10T08:19:09.316Z,2000.00
2018-07-10T08:20:09.335Z,2076.00
2018-07-10T08:21:09.306Z,2148.00
2018-07-10T08:22:09.309Z,2280.00
2018-07-10T08:23:09.299Z,2356.00
2018-07-10T08:24:09.311Z,2300.00
2018-07-10T08:25:09.396Z,2340.00
2018-07-10T08:26:09.365Z,2440.00
2018-07-10T08:27:09.354Z,2628.00
2018-07-10T08:28:09.377Z,2840.00
2018-07-10T08:29:09.398Z,2924.00
2018-07-10T08:30:09.400Z,3100.00
2018-07-10T08:31:09.435Z,3024.00
2018-07-10T08:32:09.418Z,3244.00
2018-07-10T08:33:09.427Z,3260.00
2018-07-10T08:34:09.471Z,3308.00
2018-07-10T08:35:09.488Z,3240.00
2018-07-10T08:36:09.473Z,3272.00
2018-07-10T08:37:09.502Z,3048.00
2018-07-10T08:38:09.490Z,2768.00
2018-07-10T08:39:09.514Z,2600.00
2018-07-10T08:40:09.567Z,2508.00
2018-07-10T08:41:09.550Z,2456.00
2018-07-10T08:42:09.559Z,2460.00
2018-07-10T08:43:09.636Z,2164.00
2018-07-10T08:44:09.637Z,2136.00
2018-07-10T08:45:09.574Z,2092.00
2018-07-10T08:46:09.596Z,2076.00
2018-07-10T08:47:09.623Z,2172.00
2018-07-10T08:48:09.619Z,2220.00
2018-07-10T08:49:09.672Z,2172.00
2018-07-10T08:50:09.663Z,2144.00
2018-07-10T08:51:09.715Z,2072.00
2018-07-10T08:52:09.682Z,2012.00
2018-07-10T08:53:09.710Z,1984.00
2018-07-10T08:54:09.709Z,1948.00
2018-07-10T08:55:09.707Z,1932.00
2018-07-10T08:56:09.761Z,1908.00
2018-07-10T08:57:09.732Z,1888.00
2018-07-10T08:58:09.779Z,1904.00
2018-07-10T08:59:09.794Z,1960.00
2018-07-10T09:00:09.797Z,2000.00
2018-07-10T09:01:09.791Z,2020.00
2018-07-10T09:02:09.852Z,2024.00
2018-07-10T09:03:09.858Z,1996.00
2018-07-10T09:04:09.830Z,1964.00
2018-07-10T09:05:09.840Z,1948.00
2018-07-10T09:06:09.879Z,1868.00
2018-07-10T09:07:09.889Z,1844.00
2018-07-10T09:08:09.939Z,1812.00
2018-07-10T09:09:09.905Z,1776.00
2018-07-10T09:10:09.918Z,1700.00
2018-07-10T09:11:09.947Z,1632.00
2018-07-10T09:12:09.941Z,1676.00
2018-07-10T09:13:10.069Z,1652.00
2018-07-10T09:14:10.001Z,1640.00
2018-07-10T09:15:10.010Z,1652.00
2018-07-10T09:16:09.999Z,1708.00
2018-07-10T09:17:10.155Z,1716.00
2018-07-10T09:18:10.029Z,1832.00
2018-07-10T09:19:10.082Z,1936.00
2018-07-10T09:20:10.049Z,2008.00
2018-07-10T09:21:10.111Z,1980.00
2018-07-10T09:22:10.056Z,1844.00
2018-07-10T09:23:10.136Z,1684.00
2018-07-10T09:24:10.117Z,1560.00
2018-07-10T09:25:10.189Z,1524.00
2018-07-10T09:26:10.148Z,1524.00
2018-07-10T09:27:10.205Z,1560.00
2018-07-10T09:28:10.174Z,1612.00
2018-07-10T09:29:10.295Z,1672.00
2018-07-10T09:30:10.223Z,1768.00
2018-07-10T09:31:10.225Z,1888.00
2018-07-10T09:32:10.229Z,1980.00
2018-07-10T09:33:10.346Z,2064.00
2018-07-10T09:34:10.254Z,2180.00
2018-07-10T09:35:10.395Z,2352.00
2018-07-10T09:36:10.298Z,2392.00
2018-07-10T09:37:10.289Z,2392.00
2018-07-10T09:38:10.307Z,2436.00
2018-07-10T09:39:10.307Z,2432.00
2018-07-10T09:40:10.360Z,2424.00
2018-07-10T09:41:10.332Z,2420.00
2018-07-10T09:42:10.342Z,2416.00
2018-07-10T09:43:10.397Z,2420.00
2018-07-10T09:44:10.427Z,2484.00
2018-07-10T09:45:10.413Z,2592.00
2018-07-10T09:46:10.412Z,2684.00
2018-07-10T09:47:10.489Z,2880.00
2018-07-10T09:48:10.414Z,3196.00
2018-07-10T09:49:10.457Z,3320.00
2018-07-10T09:50:10.433Z,3152.00
2018-07-10T09:51:10.471Z,3076.00
2018-07-10T09:52:10.462Z,2956.00
2018-07-10T09:53:10.540Z,2864.00
2018-07-10T09:54:10.526Z,2804.00
2018-07-10T09:55:10.544Z,2736.00
2018-07-10T09:56:10.535Z,2656.00
2018-07-10T09:57:10.548Z,2504.00
2018-07-10T09:58:10.559Z,2324.00
2018-07-10T09:59:10.563Z,2200.00
2018-07-10T10:00:10.670Z,2184.00
2018-07-10T10:01:10.640Z,2088.00
2018-07-10T10:02:10.615Z,2056.00
2018-07-10T10:03:10.626Z,1904.00
2018-07-10T10:04:10.648Z,1860.00
2018-07-10T10:05:10.659Z,1796.00
2018-07-10T10:06:10.742Z,1856.00
2018-07-10T10:07:10.674Z,1800.00
2018-07-10T10:08:10.757Z,1744.00
2018-07-10T10:09:10.736Z,1692.00
2018-07-10T10:10:10.723Z,1704.00
2018-07-10T10:11:10.790Z,1684.00
2018-07-10T10:12:10.735Z,1692.00
2018-07-10T10:13:10.764Z,1800.00
2018-07-10T10:14:10.785Z,1808.00
2018-07-10T10:15:10.814Z,1788.00
2018-07-10T10:16:10.826Z,1848.00
2018-07-10T10:17:10.844Z,1836.00
2018-07-10T10:18:10.843Z,1876.00
2018-07-10T10:19:10.853Z,1880.00
2018-07-10T10:20:10.853Z,1816.00
2018-07-10T10:21:10.881Z,1880.00
2018-07-10T10:22:10.909Z,1948.00
2018-07-10T10:23:10.899Z,2056.00
2018-07-10T10:24:10.931Z,2208.00
2018-07-10T10:25:10.938Z,2312.00
2018-07-10T10:26:10.941Z,2360.00
2018-07-10T10:27:10.948Z,2368.00
2018-07-10T10:28:10.981Z,2408.00
2018-07-10T10:29:11.016Z,2472.00
2018-07-10T10:30:10.980Z,2560.00
2018-07-10T10:31:11.069Z,2576.00
2018-07-10T10:32:11.041Z,2668.00
2018-07-10T10:33:11.054Z,2712.00
2018-07-10T10:34:11.064Z,2748.00
2018-07-10T10:35:11.085Z,2680.00
2018-07-10T10:36:11.138Z,2612.00
2018-07-10T10:37:11.145Z,2640.00
2018-07-10T10:38:11.154Z,2672.00
2018-07-10T10:39:11.115Z,2696.00
2018-07-10T10:40:11.148Z,2716.00
2018-07-10T10:41:11.138Z,2692.00
2018-07-10T10:42:11.181Z,2648.00
2018-07-10T10:43:11.221Z,2628.00
2018-07-10T10:44:11.211Z,2596.00
2018-07-10T10:45:11.213Z,2608.00
2018-07-10T10:46:11.244Z,2632.00
2018-07-10T10:47:11.228Z,2636.00
2018-07-10T10:48:11.259Z,2636.00
2018-07-10T10:49:11.290Z,2632.00
2018-07-10T10:50:11.290Z,2608.00
2018-07-10T10:51:11.275Z,2564.00
2018-07-10T10:52:11.282Z,2568.00
2018-07-10T10:53:11.299Z,2576.00
2018-07-10T10:54:11.401Z,2568.00
2018-07-10T10:55:11.333Z,2552.00
2018-07-10T10:56:11.338Z,2380.00
2018-07-10T10:57:11.354Z,2356.00
2018-07-10T10:58:11.370Z,2460.00
2018-07-10T10:59:11.443Z,2484.00
2018-07-10T11:00:11.435Z,2440.00
2018-07-10T11:01:11.433Z,2428.00
2018-07-10T11:02:11.522Z,2464.00
2018-07-10T11:03:11.437Z,2492.00
2018-07-10T11:04:11.456Z,2576.00
2018-07-10T11:05:11.501Z,2648.00
2018-07-10T11:06:11.480Z,2680.00
2018-07-10T11:07:11.558Z,2680.00
2018-07-10T11:08:11.519Z,2724.00
2018-07-10T11:09:11.542Z,2752.00
2018-07-10T11:10:11.539Z,2696.00
2018-07-10T11:11:11.557Z,2608.00
2018-07-10T11:12:11.668Z,2664.00
2018-07-10T11:13:11.645Z,2712.00
2018-07-10T11:14:11.644Z,2724.00
2018-07-10T11:15:11.612Z,2708.00
2018-07-10T11:16:11.754Z,2712.00
2018-07-10T11:17:11.635Z,2728.00
2018-07-10T11:18:11.714Z,2764.00
2018-07-10T11:19:11.692Z,2788.00
2018-07-10T11:20:11.715Z,2764.00
2018-07-10T11:21:11.737Z,2896.00
2018-07-10T11:22:11.754Z,3084.00
2018-07-10T11:23:11.716Z,3100.00
2018-07-10T11:24:11.763Z,3096.00
2018-07-10T11:25:11.804Z,3088.00
2018-07-10T11:26:11.818Z,3056.00
2018-07-10T11:27:11.776Z,3012.00
2018-07-10T11:28:11.781Z,2816.00
2018-07-10T11:29:11.830Z,2708.00
2018-07-10T11:30:11.840Z,2708.00
2018-07-10T11:31:11.833Z,2628.00
2018-07-10T11:32:11.841Z,2588.00
2018-07-10T11:33:11.852Z,2564.00
2018-07-10T11:34:11.921Z,2528.00
2018-07-10T11:35:11.952Z,2444.00
2018-07-10T11:36:11.948Z,2424.00
2018-07-10T11:37:11.910Z,2372.00
2018-07-10T11:38:11.960Z,2320.00
2018-07-10T11:39:11.965Z,2280.00
2018-07-10T11:40:11.988Z,2188.00
2018-07-10T11:41:11.973Z,2136.00
2018-07-10T11:42:12.053Z,2088.00
2018-07-10T11:43:12.091Z,2052.00
2018-07-10T11:44:11.997Z,2056.00
2018-07-10T11:45:13.114Z,2052.00
2018-07-10T11:46:12.031Z,2056.00
2018-07-10T11:47:12.065Z,2080.00
2018-07-10T11:48:12.086Z,2140.00
2018-07-10T11:49:12.099Z,2180.00
2018-07-10T11:50:12.087Z,2180.00
2018-07-10T11:51:12.144Z,2216.00
2018-07-10T11:52:12.201Z,2320.00
2018-07-10T11:53:12.147Z,2604.00
2018-07-10T11:54:12.153Z,2712.00
2018-07-10T11:55:12.193Z,2772.00
2018-07-10T11:56:12.239Z,2880.00
2018-07-10T11:57:12.237Z,2956.00
2018-07-10T11:58:12.193Z,3024.00
2018-07-10T11:59:12.325Z,2988.00
2018-07-10T12:00:12.245Z,3060.00
2018-07-10T12:01:12.274Z,3100.00
2018-07-10T12:02:12.306Z,3088.00
2018-07-10T12:03:12.284Z,3128.00
2018-07-10T12:04:12.288Z,3084.00
2018-07-10T12:05:12.305Z,3112.00
2018-07-10T12:06:12.307Z,2948.00
2018-07-10T12:07:12.418Z,2864.00
2018-07-10T12:08:12.381Z,2920.00
2018-07-10T12:09:12.462Z,2920.00
2018-07-10T12:10:12.414Z,2960.00
2018-07-10T12:11:12.387Z,3008.00
2018-07-10T12:12:12.444Z,3028.00
2018-07-10T12:13:12.417Z,3092.00
2018-07-10T12:14:12.449Z,3340.00
2018-07-10T12:15:12.463Z,3264.00
2018-07-10T12:16:12.471Z,3208.00
2018-07-10T12:17:12.557Z,3152.00
2018-07-10T12:18:12.556Z,2940.00
2018-07-10T12:19:12.499Z,2908.00
2018-07-10T12:20:12.531Z,2908.00
2018-07-10T12:21:12.529Z,2956.00
2018-07-10T12:22:12.553Z,3076.00
2018-07-10T12:23:12.629Z,3132.00
2018-07-10T12:24:12.584Z,3248.00
2018-07-10T12:25:12.634Z,3300.00
2018-07-10T12:26:12.588Z,3292.00
2018-07-10T12:27:12.618Z,3392.00
2018-07-10T12:28:12.707Z,3376.00
2018-07-10T12:29:12.675Z,3292.00
2018-07-10T12:30:12.666Z,3236.00